Time;durP1;ratioP1;P1;durP2;ratioP2;P2;SDS_P1;SDS_P2;PMS_P1;PMS_P2;Temp;Humidity;BMP_temperature;BMP_pressure;BME280_temperature;BME280_humidity;BME280_pressure;Samples;Min_cycle;Max_cycle;Signal;HPM_P1;HPM_P2
2023/12/26 00:01:45;;;;;;;3.40;2.67;;;;;;;3.56;100.00;96687.97;5086724;28;20302;-55
2023/12/26 00:04:12;;;;;;;4.13;2.83;;;;;;;3.54;100.00;96692.47;5092625;28;20194;-55
2023/12/26 00:06:43;;;;;;;3.07;2.17;;;;;;;3.45;100.00;96695.66;5085797;28;20226;-61
2023/12/26 00:09:12;;;;;;;3.90;2.57;;;;;;;3.36;100.00;96691.88;5095059;28;20225;-56
2023/12/26 00:11:42;;;;;;;3.07;2.27;;;;;;;3.41;100.00;96688.94;5093763;28;20342;-55
2023/12/26 00:14:09;;;;;;;3.37;2.37;;;;;;;3.46;100.00;96686.88;5090745;28;20233;-54
2023/12/26 00:16:36;;;;;;;2.70;2.00;;;;;;;3.48;100.00;96690.22;5084549;28;20222;-55
2023/12/26 00:19:02;;;;;;;4.33;2.73;;;;;;;3.45;100.00;96696.50;5081790;28;20293;-55
2023/12/26 00:21:29;;;;;;;2.70;2.20;;;;;;;3.48;100.00;96691.06;5083845;28;20839;-55
2023/12/26 00:23:57;;;;;;;3.60;2.17;;;;;;;3.47;100.00;96696.41;5081516;28;20302;-54
2023/12/26 00:26:25;;;;;;;2.63;2.43;;;;;;;3.47;100.00;96688.56;5081808;28;20233;-54
2023/12/26 00:28:52;;;;;;;3.73;2.47;;;;;;;3.47;100.00;96696.41;5081750;28;20265;-54
2023/12/26 00:31:18;;;;;;;6.10;2.70;;;;;;;3.41;100.00;96697.63;5082346;28;20193;-54
2023/12/26 00:33:45;;;;;;;4.47;2.60;;;;;;;3.43;100.00;96697.53;5082721;28;20229;-55
2023/12/26 00:36:14;;;;;;;4.50;2.37;;;;;;;3.53;100.00;96693.41;5081906;28;20613;-55
2023/12/26 00:38:40;;;;;;;2.80;2.40;;;;;;;3.48;100.00;96693.69;5081777;28;20262;-55
2023/12/26 00:41:09;;;;;;;2.70;2.50;;;;;;;3.54;100.00;96694.25;5081407;28;20281;-55
2023/12/26 00:43:37;;;;;;;2.33;2.20;;;;;;;3.44;100.00;96691.34;5081138;28;20244;-53
2023/12/26 00:46:06;;;;;;;4.27;2.63;;;;;;;3.44;100.00;96693.97;5081582;28;20229;-55
2023/12/26 00:48:32;;;;;;;3.40;2.53;;;;;;;3.45;100.00;96696.50;5081175;28;20202;-55
2023/12/26 00:50:59;;;;;;;2.80;2.50;;;;;;;3.53;100.00;96693.41;5084695;28;21006;-55
2023/12/26 00:53:26;;;;;;;4.27;2.07;;;;;;;3.47;100.00;96678.13;5084670;28;20301;-55
2023/12/26 00:55:53;;;;;;;5.80;3.10;;;;;;;3.40;100.00;96689.91;5085261;28;20518;-55
2023/12/26 00:58:20;;;;;;;3.17;2.90;;;;;;;3.33;100.00;96678.16;5083594;28;20230;-56
2023/12/26 01:00:48;;;;;;;6.03;2.43;;;;;;;3.34;100.00;96685.03;5084928;28;20223;-55
2023/12/26 01:03:15;;;;;;;4.73;2.90;;;;;;;3.37;100.00;96682.22;5084812;28;20420;-55
2023/12/26 01:05:41;;;;;;;3.13;2.60;;;;;;;3.37;100.00;96683.06;5085316;28;20212;-55
2023/12/26 01:08:09;;;;;;;2.90;2.53;;;;;;;3.42;100.00;96675.78;5098637;28;20222;-56
2023/12/26 01:10:35;;;;;;;4.07;2.77;;;;;;;3.48;100.00;96679.78;5104641;28;20217;-55
2023/12/26 01:13:02;;;;;;;3.93;2.83;;;;;;;3.55;100.00;96681.03;5091403;28;20226;-56
2023/12/26 01:15:29;;;;;;;3.30;2.70;;;;;;;3.60;100.00;96676.38;5084837;28;20203;-56
2023/12/26 01:17:57;;;;;;;5.10;2.60;;;;;;;3.66;100.00;96682.97;5084614;28;20230;-56
2023/12/26 01:20:23;;;;;;;4.10;3.00;;;;;;;3.74;100.00;96673.69;5084391;28;20292;-56
2023/12/26 01:22:51;;;;;;;3.13;2.63;;;;;;;3.81;100.00;96680.19;5083787;28;20714;-56
2023/12/26 01:25:21;;;;;;;3.10;2.80;;;;;;;3.83;100.00;96675.69;5084378;28;20726;-56
2023/12/26 01:27:48;;;;;;;4.53;2.60;;;;;;;3.78;100.00;96679.56;5085164;28;20251;-56
2023/12/26 01:30:15;;;;;;;5.80;3.27;;;;;;;3.69;100.00;96678.38;5083620;28;20574;-56
2023/12/26 01:32:41;;;;;;;4.07;2.60;;;;;;;3.66;100.00;96678.56;5083729;28;20647;-56
2023/12/26 01:35:09;;;;;;;4.77;3.00;;;;;;;3.62;100.00;96676.25;5083748;28;20317;-55
2023/12/26 01:37:36;;;;;;;4.43;2.93;;;;;;;3.67;100.00;96680.25;5084487;28;20245;-56
2023/12/26 01:40:04;;;;;;;4.40;2.80;;;;;;;3.67;100.00;96685.50;5084087;28;20296;-56
2023/12/26 01:42:31;;;;;;;5.33;2.80;;;;;;;3.70;100.00;96684.44;5083698;28;20642;-57
2023/12/26 01:44:58;;;;;;;2.90;2.70;;;;;;;3.64;100.00;96688.31;5086532;28;20297;-56
2023/12/26 01:47:24;;;;;;;2.80;2.60;;;;;;;3.55;100.00;96685.44;5092822;28;20230;-56
2023/12/26 01:49:52;;;;;;;3.63;2.70;;;;;;;3.63;100.00;96697.09;5093061;28;20202;-56
2023/12/26 01:52:21;;;;;;;3.33;2.97;;;;;;;3.70;100.00;96694.91;5091748;28;20203;-56
2023/12/26 01:54:50;;;;;;;2.90;2.70;;;;;;;3.76;100.00;96691.88;5084997;28;20520;-56
2023/12/26 01:57:17;;;;;;;3.23;2.93;;;;;;;3.77;100.00;96685.72;5083244;28;20199;-57
2023/12/26 01:59:44;;;;;;;3.37;3.00;;;;;;;3.74;100.00;96701.63;5083166;28;20309;-57
2023/12/26 02:02:11;;;;;;;3.60;2.83;;;;;;;3.75;100.00;96695.47;5083088;28;20216;-57
2023/12/26 02:04:38;;;;;;;2.70;2.50;;;;;;;3.81;100.00;96700.28;5084214;28;20337;-57
2023/12/26 02:07:07;;;;;;;3.53;2.90;;;;;;;3.82;100.00;96696.72;5083890;28;20584;-57
2023/12/26 02:09:39;;;;;;;3.40;2.70;;;;;;;3.79;100.00;96700.38;5083950;28;20221;-57
2023/12/26 02:12:07;;;;;;;2.60;2.40;;;;;;;3.79;100.00;96700.38;5083700;28;20202;-56
2023/12/26 02:14:33;;;;;;;2.67;2.47;;;;;;;3.85;100.00;96699.97;5083621;28;20198;-57
2023/12/26 02:17:03;;;;;;;3.23;2.93;;;;;;;3.81;100.00;96705.50;5083153;28;20714;-56
2023/12/26 02:19:30;;;;;;;6.27;2.90;;;;;;;3.81;100.00;96698.50;5083566;28;20883;-57
2023/12/26 02:21:57;;;;;;;3.03;2.80;;;;;;;3.81;100.00;96700.28;5084419;28;20297;-57
2023/12/26 02:24:25;;;;;;;4.60;3.10;;;;;;;3.86;100.00;96701.63;5084073;28;20720;-57
2023/12/26 02:26:57;;;;;;;3.43;3.00;;;;;;;3.94;100.00;96704.59;5093201;28;20240;-57
2023/12/26 02:29:25;;;;;;;3.20;2.90;;;;;;;3.98;100.00;96706.06;5096803;28;20198;-56
2023/12/26 02:31:54;;;;;;;5.63;2.80;;;;;;;4.05;100.00;96703.88;5097946;28;20230;-56
2023/12/26 02:34:22;;;;;;;5.00;2.60;;;;;;;4.11;100.00;96711.31;5091620;28;20205;-57
2023/12/26 02:36:49;;;;;;;3.90;2.80;;;;;;;4.16;100.00;96708.41;5086066;28;20297;-57
2023/12/26 02:39:16;;;;;;;5.93;3.53;;;;;;;4.21;100.00;96706.34;5083834;28;20230;-56
2023/12/26 02:41:45;;;;;;;3.00;2.80;;;;;;;4.36;100.00;96707.91;5084188;28;20263;-57
2023/12/26 02:44:11;;;;;;;4.90;2.80;;;;;;;4.44;100.00;96697.75;5082842;28;20198;-56
2023/12/26 02:46:38;;;;;;;3.47;2.97;;;;;;;4.44;100.00;96703.84;5083865;28;20289;-56
2023/12/26 02:49:05;;;;;;;3.63;2.90;;;;;;;4.45;100.00;96705.53;5083763;28;20290;-56
2023/12/26 02:51:35;;;;;;;3.13;2.40;;;;;;;4.53;100.00;96701.53;5082144;28;20316;-56
2023/12/26 02:54:03;;;;;;;2.60;2.40;;;;;;;4.50;100.00;96705.19;5083965;28;20207;-56
2023/12/26 02:56:28;;;;;;;4.90;2.90;;;;;;;4.53;100.00;96706.78;5083367;28;20298;-56
2023/12/26 02:58:57;;;;;;;2.87;2.67;;;;;;;4.53;100.00;96699.75;5082823;28;20233;-56
2023/12/26 03:01:23;;;;;;;2.93;2.73;;;;;;;4.48;100.00;96694.84;5083114;28;21476;-57
2023/12/26 03:03:50;;;;;;;4.20;3.00;;;;;;;4.51;100.00;96699.00;5084044;28;20301;-56
2023/12/26 03:06:17;;;;;;;4.87;2.90;;;;;;;4.51;100.00;96699.00;5082503;28;20289;-57
2023/12/26 03:08:43;;;;;;;3.20;2.87;;;;;;;4.56;100.00;96701.31;5083411;28;20600;-56
2023/12/26 03:11:10;;;;;;;3.67;3.30;;;;;;;4.47;100.00;96702.78;5083425;28;20293;-56
2023/12/26 03:13:39;;;;;;;3.90;2.93;;;;;;;4.56;100.00;96696.94;5082259;28;20288;-56
2023/12/26 03:16:07;;;;;;;4.63;3.07;;;;;;;4.51;100.00;96699.00;5084352;28;20528;-57
2023/12/26 03:18:34;;;;;;;3.77;2.77;;;;;;;4.48;100.00;96701.84;5085180;28;20316;-56
2023/12/26 03:21:00;;;;;;;2.87;2.60;;;;;;;4.48;100.00;96704.47;5081847;28;20256;-56
2023/12/26 03:23:27;;;;;;;4.90;3.00;;;;;;;4.58;100.00;96708.13;5082087;28;20292;-56
2023/12/26 03:25:53;;;;;;;3.77;2.50;;;;;;;4.52;100.00;96708.56;5081708;28;20298;-58
2023/12/26 03:28:20;;;;;;;2.60;2.40;;;;;;;4.54;100.00;96709.28;5082121;28;20804;-56
2023/12/26 03:30:47;;;;;;;4.10;2.33;;;;;;;4.56;100.00;96710.03;5082775;28;20298;-56
2023/12/26 03:33:14;;;;;;;2.70;2.20;;;;;;;4.57;100.00;96703.81;5081945;28;20281;-55
2023/12/26 03:35:41;;;;;;;4.47;2.73;;;;;;;4.61;100.00;96701.84;5082064;28;20596;-57
2023/12/26 03:38:08;;;;;;;2.40;2.00;;;;;;;4.60;100.00;96708.03;5082962;28;20348;-57
2023/12/26 03:40:34;;;;;;;3.37;2.20;;;;;;;4.65;100.00;96712.00;5082462;28;20366;-56
2023/12/26 03:43:01;;;;;;;4.20;2.50;;;;;;;4.67;100.00;96709.28;5082164;28;20281;-56
2023/12/26 03:45:28;;;;;;;5.10;2.43;;;;;;;4.72;100.00;96708.00;5083082;28;20593;-57
2023/12/26 03:47:55;;;;;;;4.00;2.43;;;;;;;4.70;100.00;96709.91;5081838;28;20233;-56
2023/12/26 03:50:26;;;;;;;3.77;2.27;;;;;;;4.74;100.00;96711.38;5082016;28;20194;-56
2023/12/26 03:52:53;;;;;;;3.33;2.67;;;;;;;4.74;100.00;96716.63;5082398;28;20215;-57
2023/12/26 03:55:19;;;;;;;3.63;2.30;;;;;;;4.73;100.00;96719.34;5081682;28;20617;-56
2023/12/26 03:57:46;;;;;;;2.37;2.13;;;;;;;4.69;100.00;96713.47;5082166;28;20222;-57
2023/12/26 04:00:14;;;;;;;2.87;2.00;;;;;;;4.66;100.00;96712.84;5081282;28;20294;-56
2023/12/26 04:02:41;;;;;;;3.93;2.20;;;;;;;4.63;100.00;96716.53;5082661;28;20293;-57
2023/12/26 04:05:08;;;;;;;2.63;2.10;;;;;;;4.64;100.00;96717.38;5081280;28;20293;-56
2023/12/26 04:07:37;;;;;;;2.23;2.13;;;;;;;4.60;100.00;96711.50;5082041;28;20293;-56
2023/12/26 04:10:04;;;;;;;4.20;2.40;;;;;;;4.61;100.00;96720.16;5081245;28;20700;-56
2023/12/26 04:12:31;;;;;;;3.90;3.30;;;;;;;4.59;100.00;96709.81;5081276;28;20206;-55
2023/12/26 04:14:58;;;;;;;3.77;3.13;;;;;;;4.59;100.00;96714.22;5080923;28;20202;-55
2023/12/26 04:17:25;;;;;;;4.97;2.50;;;;;;;4.62;100.00;96712.22;5081727;28;20310;-56
2023/12/26 04:19:54;;;;;;;3.43;2.30;;;;;;;4.66;100.00;96718.09;5080959;28;20324;-56
2023/12/26 04:22:20;;;;;;;2.77;2.27;;;;;;;4.72;100.00;96728.97;5081469;28;20221;-56
2023/12/26 04:24:48;;;;;;;3.70;2.50;;;;;;;4.75;100.00;96727.91;5080728;28;20289;-57
2023/12/26 04:27:15;;;;;;;3.03;2.27;;;;;;;4.75;100.00;96726.13;5081037;28;20269;-56
2023/12/26 04:29:42;;;;;;;2.93;2.50;;;;;;;4.75;100.00;96733.16;5081540;28;20293;-56
2023/12/26 04:32:10;;;;;;;3.73;2.60;;;;;;;4.86;100.00;96725.41;5080428;28;20285;-57
2023/12/26 04:34:38;;;;;;;3.23;2.40;;;;;;;4.90;100.00;96732.09;5081874;28;20641;-57
2023/12/26 04:37:05;;;;;;;5.97;2.57;;;;;;;4.91;100.00;96734.63;5081513;28;20281;-54
2023/12/26 04:39:31;;;;;;;5.53;2.37;;;;;;;4.91;100.00;96737.25;5082055;28;20313;-56
2023/12/26 04:41:59;;;;;;;3.53;2.73;;;;;;;4.92;100.00;96736.28;5081685;28;20619;-57
2023/12/26 04:44:26;;;;;;;2.83;2.50;;;;;;;4.97;100.00;96735.97;5081997;28;20293;-56
2023/12/26 04:46:53;;;;;;;4.33;2.30;;;;;;;5.03;100.00;96744.25;5081282;28;20229;-57
2023/12/26 04:49:19;;;;;;;4.70;2.40;;;;;;;5.08;100.00;96745.72;5081651;28;20289;-56
2023/12/26 04:51:46;;;;;;;4.30;2.17;;;;;;;5.13;100.00;96748.88;5081445;28;20293;-56
2023/12/26 04:54:13;;;;;;;3.10;2.30;;;;;;;5.12;100.00;96752.41;5082102;28;20229;-58
2023/12/26 04:56:43;;;;;;;4.27;2.57;;;;;;;5.21;100.00;96757.03;5081771;28;20341;-57
2023/12/26 04:59:11;;;;;;;3.00;2.00;;;;;;;5.17;100.00;96751.19;5081045;28;20248;-56
2023/12/26 05:01:41;;;;;;;2.97;2.27;;;;;;;5.16;100.00;96756.50;5081459;28;20293;-56
2023/12/26 05:04:09;;;;;;;4.47;2.13;;;;;;;5.22;100.00;96758.69;5082279;28;20832;-57
2023/12/26 05:06:38;;;;;;;4.30;2.20;;;;;;;5.20;100.00;96760.59;5081537;28;20263;-57
2023/12/26 05:09:05;;;;;;;3.10;2.30;;;;;;;5.16;100.00;96761.75;5082699;28;20273;-57
2023/12/26 05:11:32;;;;;;;2.27;1.93;;;;;;;5.10;100.00;96762.19;5081347;28;20294;-56
2023/12/26 05:13:59;;;;;;;4.13;2.73;;;;;;;5.13;100.00;96760.19;5081478;28;20308;-56
2023/12/26 05:16:30;;;;;;;2.47;1.83;;;;;;;5.15;100.00;96770.56;5081108;28;20289;-56
2023/12/26 05:18:57;;;;;;;4.50;2.57;;;;;;;5.15;100.00;96763.53;5080992;28;20233;-57
2023/12/26 05:21:24;;;;;;;2.37;2.07;;;;;;;5.19;100.00;96764.16;5081029;28;20293;-56
2023/12/26 05:23:51;;;;;;;2.73;2.13;;;;;;;5.13;100.00;96773.31;5080889;28;20317;-56
2023/12/26 05:26:18;;;;;;;2.83;2.30;;;;;;;5.15;100.00;96776.63;5081985;28;20206;-56
2023/12/26 05:28:45;;;;;;;2.93;2.60;;;;;;;5.15;100.00;96778.41;5080512;28;20301;-57
2023/12/26 05:31:11;;;;;;;4.77;2.80;;;;;;;5.17;100.00;96776.53;5079370;28;20553;-56
2023/12/26 05:33:39;;;;;;;3.97;2.27;;;;;;;5.19;100.00;96780.72;5081158;28;20244;-56
2023/12/26 05:36:06;;;;;;;3.70;2.10;;;;;;;5.22;100.00;96787.53;5082366;28;20281;-56
2023/12/26 05:38:33;;;;;;;3.23;1.97;;;;;;;5.31;100.00;96784.28;5084175;28;20296;-56
2023/12/26 05:41:00;;;;;;;3.83;2.40;;;;;;;5.38;100.00;96782.91;5092559;28;20223;-56
2023/12/26 05:43:26;;;;;;;4.10;2.40;;;;;;;5.40;100.00;96788.88;5090354;28;20194;-56
2023/12/26 05:45:53;;;;;;;4.80;2.13;;;;;;;5.46;100.00;96783.19;5089945;28;20662;-56
2023/12/26 05:48:20;;;;;;;4.07;2.60;;;;;;;5.45;100.00;96789.41;5085613;28;20284;-56
2023/12/26 05:50:48;;;;;;;3.07;2.20;;;;;;;5.43;100.00;96799.97;5084568;28;20253;-56
2023/12/26 05:53:14;;;;;;;2.33;2.13;;;;;;;5.44;100.00;96800.81;5084433;28;20594;-56
2023/12/26 05:55:41;;;;;;;4.37;2.23;;;;;;;5.45;100.00;96798.09;5083599;28;20288;-56
2023/12/26 05:58:08;;;;;;;4.63;2.33;;;;;;;5.42;100.00;96793.06;5083557;28;20706;-56
2023/12/26 06:00:34;;;;;;;4.00;2.30;;;;;;;5.40;100.00;96796.72;5084505;28;20316;-56
2023/12/26 06:03:03;;;;;;;3.00;1.87;;;;;;;5.36;100.00;96801.34;5083713;28;20721;-57
2023/12/26 06:05:30;;;;;;;4.03;1.90;;;;;;;5.34;100.00;96805.88;5084428;28;20434;-56
2023/12/26 06:07:58;;;;;;;2.50;2.20;;;;;;;5.29;100.00;96812.38;5083510;28;20302;-57
2023/12/26 06:10:25;;;;;;;3.53;2.17;;;;;;;5.28;100.00;96816.78;5084177;28;20286;-57
2023/12/26 06:12:51;;;;;;;3.33;1.90;;;;;;;5.31;100.00;96823.63;5083227;28;20289;-55
2023/12/26 06:15:18;;;;;;;2.90;2.60;;;;;;;5.30;100.00;96820.16;5083267;28;21532;-56
2023/12/26 06:17:46;;;;;;;2.07;1.87;;;;;;;5.28;100.00;96832.50;5084237;28;20231;-56
2023/12/26 06:20:14;;;;;;;3.57;2.27;;;;;;;5.26;100.00;96831.78;5083328;28;20575;-56
2023/12/26 06:22:40;;;;;;;2.17;1.97;;;;;;;5.27;100.00;96845.75;5083559;28;20210;-56
2023/12/26 06:25:10;;;;;;;2.63;2.07;;;;;;;5.23;100.00;96844.28;5083415;28;20300;-56
2023/12/26 06:27:37;;;;;;;3.13;1.73;;;;;;;5.23;100.00;96836.41;5083534;28;20367;-56
2023/12/26 06:30:07;;;;;;;2.40;1.80;;;;;;;5.23;100.00;96845.13;5082702;28;20260;-56
2023/12/26 06:32:34;;;;;;;3.23;2.47;;;;;;;5.19;100.00;96843.66;5084522;28;20229;-58
2023/12/26 06:35:01;;;;;;;2.50;2.00;;;;;;;5.15;100.00;96846.56;5086519;28;20207;-56
2023/12/26 06:37:27;;;;;;;3.37;2.40;;;;;;;5.16;100.00;96848.25;5085984;28;20290;-56
2023/12/26 06:39:54;;;;;;;5.37;2.30;;;;;;;5.13;100.00;96848.47;5083614;28;20318;-56
2023/12/26 06:42:22;;;;;;;2.67;2.20;;;;;;;5.05;100.00;96851.59;5083175;28;20270;-56
2023/12/26 06:44:49;;;;;;;2.40;2.00;;;;;;;5.10;100.00;96840.81;5083112;28;20278;-57
2023/12/26 06:47:15;;;;;;;3.40;1.87;;;;;;;5.07;100.00;96848.88;5082414;28;20284;-56
2023/12/26 06:49:44;;;;;;;4.57;2.00;;;;;;;5.02;100.00;96854.44;5083170;28;20237;-56
2023/12/26 06:52:12;;;;;;;2.23;2.03;;;;;;;4.99;100.00;96847.59;5083725;28;20293;-56
2023/12/26 06:54:39;;;;;;;2.30;2.10;;;;;;;4.99;100.00;96850.22;5083271;28;20308;-56
2023/12/26 06:57:08;;;;;;;4.07;2.30;;;;;;;4.99;100.00;96855.47;5083014;28;20298;-56
2023/12/26 06:59:36;;;;;;;3.23;2.13;;;;;;;4.86;100.00;96862.50;5081607;28;20234;-57
2023/12/26 07:02:03;;;;;;;3.13;2.27;;;;;;;4.82;100.00;96866.25;5083394;28;20455;-56
2023/12/26 07:04:29;;;;;;;3.87;2.50;;;;;;;4.87;100.00;96858.94;5082106;28;20292;-56
2023/12/26 07:06:57;;;;;;;3.63;2.30;;;;;;;4.86;100.00;96861.66;5082935;28;20297;-56
2023/12/26 07:09:24;;;;;;;6.67;2.50;;;;;;;4.89;100.00;96859.66;5083648;28;20206;-56
2023/12/26 07:11:51;;;;;;;4.17;2.30;;;;;;;5.00;100.00;96859.78;5082520;28;20306;-56
2023/12/26 07:14:19;;;;;;;3.10;2.50;;;;;;;5.01;100.00;96864.09;5081938;28;20217;-57
2023/12/26 07:16:47;;;;;;;2.40;2.20;;;;;;;5.12;100.00;96858.13;5082936;28;20285;-56
2023/12/26 07:19:14;;;;;;;2.47;2.17;;;;;;;5.14;100.00;96866.69;5082277;28;20632;-57
2023/12/26 07:21:42;;;;;;;3.97;2.30;;;;;;;5.25;100.00;96874.69;5082527;28;20714;-56
2023/12/26 07:24:09;;;;;;;2.33;1.87;;;;;;;5.28;100.00;96879.69;5082635;28;20206;-57
2023/12/26 07:26:36;;;;;;;2.50;2.17;;;;;;;5.34;100.00;96878.47;5085900;28;20358;-57
2023/12/26 07:29:02;;;;;;;4.13;2.30;;;;;;;5.38;100.00;96885.19;5090672;28;20198;-56
2023/12/26 07:31:30;;;;;;;2.83;2.43;;;;;;;5.39;100.00;96892.06;5087446;28;20601;-56
2023/12/26 07:34:00;;;;;;;2.07;1.83;;;;;;;5.43;100.00;96898.78;5086588;28;20615;-56
2023/12/26 07:36:27;;;;;;;3.17;2.27;;;;;;;5.47;100.00;96900.25;5084198;28;20554;-56
2023/12/26 07:38:54;;;;;;;2.17;2.07;;;;;;;5.43;100.00;96909.28;5082729;28;20285;-56
2023/12/26 07:41:20;;;;;;;2.10;1.77;;;;;;;5.44;100.00;96901.31;5083126;28;20285;-56
2023/12/26 07:43:49;;;;;;;2.47;1.80;;;;;;;5.48;100.00;96910.66;5085753;28;20288;-56
2023/12/26 07:46:16;;;;;;;2.00;1.90;;;;;;;5.44;100.00;96914.44;5094407;28;20210;-56
2023/12/26 07:48:43;;;;;;;2.10;1.90;;;;;;;5.44;100.00;96914.44;5098493;28;20221;-56
2023/12/26 07:51:11;;;;;;;1.87;1.77;;;;;;;5.40;100.00;96923.47;5097167;28;20190;-56
2023/12/26 07:53:37;;;;;;;2.87;1.80;;;;;;;5.41;100.00;96932.16;5095602;28;20627;-57
2023/12/26 07:56:04;;;;;;;2.03;1.83;;;;;;;5.38;100.00;96932.38;5091811;28;20236;-56
2023/12/26 07:58:34;;;;;;;2.10;2.00;;;;;;;5.34;100.00;96933.53;5098346;28;20298;-58
2023/12/26 08:01:02;;;;;;;5.57;2.40;;;;;;;5.35;100.00;96940.47;5101104;28;20214;-55
2023/12/26 08:03:28;;;;;;;3.57;2.60;;;;;;;5.31;100.00;96934.59;5101356;28;20258;-55
2023/12/26 08:05:56;;;;;;;3.50;3.17;;;;;;;5.34;100.00;96937.00;5089610;28;20226;-56
2023/12/26 08:08:29;;;;;;;3.77;3.40;;;;;;;5.36;100.00;96949.97;5106641;28;20209;-56
2023/12/26 08:10:56;;;;;;;4.90;3.33;;;;;;;5.42;100.00;96946.97;5103253;28;20202;-56
2023/12/26 08:13:22;;;;;;;4.20;2.90;;;;;;;5.40;100.00;96939.19;5103490;28;20283;-56
2023/12/26 08:15:51;;;;;;;3.77;2.90;;;;;;;5.39;100.00;96945.38;5104273;28;20216;-55
2023/12/26 08:18:18;;;;;;;4.27;3.17;;;;;;;5.41;100.00;96938.25;5102694;28;20232;-55
2023/12/26 08:20:44;;;;;;;4.63;3.63;;;;;;;5.43;100.00;96938.13;5101389;28;20217;-56
2023/12/26 08:23:11;;;;;;;3.43;2.97;;;;;;;5.48;100.00;96944.75;5086389;28;20248;-56
2023/12/26 08:25:39;;;;;;;3.77;3.30;;;;;;;5.53;100.00;96947.06;5082077;28;20304;-56
2023/12/26 08:28:06;;;;;;;4.17;3.57;;;;;;;5.55;100.00;96942.56;5081583;28;20316;-56
2023/12/26 08:30:33;;;;;;;2.90;2.70;;;;;;;5.62;100.00;96945.59;5081394;28;20212;-56
2023/12/26 08:32:59;;;;;;;3.73;3.23;;;;;;;5.66;100.00;96942.66;5082191;28;20316;-55
2023/12/26 08:35:26;;;;;;;4.37;3.87;;;;;;;5.65;100.00;96948.84;5081824;28;20264;-57
2023/12/26 08:37:53;;;;;;;5.70;3.27;;;;;;;5.75;100.00;96949.88;5082153;28;20206;-55
2023/12/26 08:40:23;;;;;;;3.70;3.20;;;;;;;5.86;100.00;96955.28;5080964;28;20308;-55
2023/12/26 08:42:52;;;;;;;4.40;3.20;;;;;;;5.92;100.00;96949.59;5081717;28;20221;-54
2023/12/26 08:45:19;;;;;;;3.90;3.50;;;;;;;5.98;100.00;96954.44;5081649;28;20320;-56
2023/12/26 08:47:46;;;;;;;10.90;8.63;;;;;;;6.10;100.00;96963.19;5081739;28;20198;-53
2023/12/26 08:50:12;;;;;;;13.80;9.93;;;;;;;6.21;100.00;96965.06;5081376;28;20443;-56
2023/12/26 08:52:39;;;;;;;7.97;5.47;;;;;;;6.31;100.00;96966.94;5081304;28;20297;-56
2023/12/26 08:55:06;;;;;;;6.00;3.40;;;;;;;6.43;100.00;96970.50;5081558;28;20285;-56
2023/12/26 08:57:34;;;;;;;2.50;2.30;;;;;;;6.55;100.00;96974.88;5081698;28;20206;-55
2023/12/26 09:00:04;;;;;;;3.80;2.50;;;;;;;6.66;100.00;96969.66;5080499;28;20330;-55
2023/12/26 09:02:31;;;;;;;3.47;2.30;;;;;;;6.79;100.00;96974.88;5081471;28;20206;-55
2023/12/26 09:04:58;;;;;;;3.30;2.20;;;;;;;6.89;100.00;96975.88;5081622;28;20294;-56
2023/12/26 09:07:26;;;;;;;2.83;2.30;;;;;;;7.00;100.00;96982.03;5082082;28;20631;-56
2023/12/26 09:09:53;;;;;;;3.23;2.40;;;;;;;7.06;100.00;96993.88;5082273;28;20285;-56
2023/12/26 09:12:19;;;;;;;3.23;2.10;;;;;;;7.18;100.00;96994.78;5085240;28;20228;-56
2023/12/26 09:14:46;;;;;;;6.00;2.17;;;;;;;7.27;100.00;96994.09;5084558;28;20639;-55
2023/12/26 09:17:14;;;;;;;2.07;1.97;;;;;;;7.35;100.00;96992.56;5085102;28;20297;-56
2023/12/26 09:19:41;;;;;;;3.97;2.47;;;;;;;7.46;100.00;96999.66;5084985;28;20198;-56
2023/12/26 09:22:08;;;;;;;2.37;2.17;;;;;;;7.58;100.00;96998.72;5085725;28;20217;-57
2023/12/26 09:24:34;;;;;;;2.10;2.00;;;;;;;7.65;100.00;97005.19;5085712;28;20248;-56
2023/12/26 09:27:01;;;;;;;5.37;2.50;;;;;;;7.83;100.00;97002.97;5085559;28;20301;-56
2023/12/26 09:29:30;;;;;;;2.60;1.90;;;;;;;7.90;100.00;96994.47;5084033;28;20607;-56
2023/12/26 09:31:57;;;;;;;3.03;2.10;;;;;;;7.97;100.00;97003.56;5084522;28;20216;-56
2023/12/26 09:34:25;;;;;;;3.10;1.90;;;;;;;8.02;100.00;97009.34;5084853;28;20292;-56
2023/12/26 09:36:51;;;;;;;2.80;2.00;;;;;;;8.10;100.00;97007.91;5084521;28;20304;-56
2023/12/26 09:39:18;;;;;;;2.77;1.97;;;;;;;8.22;100.00;97005.16;5084675;28;20238;-56
2023/12/26 09:41:45;;;;;;;4.17;2.20;;;;;;;8.19;100.00;97005.38;5085099;28;20305;-56
2023/12/26 09:44:12;;;;;;;2.57;1.80;;;;;;;8.21;100.00;97005.28;5084997;28;20236;-56
2023/12/26 09:46:39;;;;;;;1.90;1.63;;;;;;;8.22;100.00;97015.69;5084595;28;20284;-56
2023/12/26 09:49:05;;;;;;;2.30;1.90;;;;;;;8.29;100.00;97006.38;5084401;28;20229;-56
2023/12/26 09:51:37;;;;;;;3.50;2.30;;;;;;;8.25;100.00;97002.28;5088298;28;20259;-56
2023/12/26 09:54:05;;;;;;;2.53;1.63;;;;;;;8.29;100.00;97000.28;5086585;28;20198;-56
2023/12/26 09:56:33;;;;;;;2.83;1.90;;;;;;;8.32;100.00;97010.59;5084989;28;20281;-55
2023/12/26 09:59:01;;;;;;;2.33;1.67;;;;;;;8.37;100.00;97017.16;5084690;28;20581;-55
2023/12/26 10:01:28;;;;;;;2.60;1.70;;;;;;;8.52;100.00;97023.03;5084071;28;20218;-56
2023/12/26 10:03:56;;;;;;;3.30;2.07;;;;;;;8.57;99.74;97025.31;5084398;28;20328;-56
2023/12/26 10:06:23;;;;;;;2.93;2.37;;;;;;;8.63;99.91;97030.09;5083621;28;20346;-55
2023/12/26 10:08:51;;;;;;;3.77;1.60;;;;;;;8.65;100.00;97031.63;5083744;28;20301;-57
2023/12/26 10:11:20;;;;;;;4.67;2.30;;;;;;;8.69;100.00;97038.34;5084012;28;20298;-55
2023/12/26 10:13:50;;;;;;;5.07;2.17;;;;;;;8.69;98.89;97025.16;5086540;28;20213;-56
2023/12/26 10:16:17;;;;;;;4.63;2.30;;;;;;;8.69;99.42;97027.78;5091524;28;20202;-55
2023/12/26 10:18:44;;;;;;;3.60;2.00;;;;;;;8.68;100.00;97022.66;5091448;28;20234;-55
2023/12/26 10:21:10;;;;;;;1.93;1.77;;;;;;;8.68;100.00;97018.19;5085231;28;20565;-56
2023/12/26 10:23:39;;;;;;;2.67;1.70;;;;;;;8.69;100.00;97019.03;5083952;28;20245;-56
2023/12/26 10:26:08;;;;;;;5.07;3.40;;;;;;;8.70;100.00;97020.72;5083719;28;20217;-56
2023/12/26 10:28:38;;;;;;;2.90;2.10;;;;;;;8.73;100.00;97028.38;5083770;28;20237;-56
2023/12/26 10:31:11;;;;;;;2.30;1.97;;;;;;;8.79;97.52;97030.53;5083230;28;20653;-56
2023/12/26 10:33:38;;;;;;;4.03;2.10;;;;;;;8.81;95.66;97031.25;5083683;28;20199;-56
2023/12/26 10:36:05;;;;;;;3.40;1.80;;;;;;;8.80;98.20;97024.31;5083675;28;20701;-56
2023/12/26 10:38:32;;;;;;;2.60;2.20;;;;;;;8.95;94.80;97016.00;5083443;28;20288;-56
2023/12/26 10:41:01;;;;;;;3.47;2.33;;;;;;;8.93;94.90;97017.91;5083208;28;20271;-56
2023/12/26 10:43:29;;;;;;;3.37;2.13;;;;;;;9.00;94.32;97013.81;5082945;28;20289;-56
2023/12/26 10:45:56;;;;;;;2.90;1.80;;;;;;;9.10;93.29;97023.63;5083819;28;20207;-56
2023/12/26 10:48:27;;;;;;;3.80;1.83;;;;;;;9.09;94.05;97029.88;5083624;28;20202;-56
2023/12/26 10:50:55;;;;;;;2.70;1.90;;;;;;;9.23;90.97;97034.84;5083495;28;20205;-56
2023/12/26 10:53:23;;;;;;;5.07;2.60;;;;;;;9.30;92.21;97030.75;5083219;28;20395;-56
2023/12/26 10:55:51;;;;;;;5.03;2.13;;;;;;;9.44;90.63;97030.47;5083606;28;20272;-56
2023/12/26 10:58:23;;;;;;;2.23;2.00;;;;;;;9.30;92.13;97033.41;5082619;28;20237;-56
2023/12/26 13:53:27;;;;;;;3.20;2.00;;;;;;;9.48;91.07;97023.97;5085117;28;20273;-55
2023/12/26 13:56:33;;;;;;;3.80;2.50;;;;;;;9.34;90.75;97037.47;5083927;28;20263;-56
2023/12/26 13:59:37;;;;;;;3.77;2.10;;;;;;;9.20;92.22;97045.66;5083480;28;20229;-56
2023/12/26 14:02:41;;;;;;;4.53;2.70;;;;;;;9.02;96.05;97047.16;5083573;28;20229;-56
2023/12/26 14:05:45;;;;;;;3.87;2.53;;;;;;;8.89;98.32;97027.03;5084717;28;20259;-56
2023/12/26 14:08:49;;;;;;;3.57;2.50;;;;;;;8.71;98.59;97022.41;5083464;28;20217;-56
2023/12/26 14:11:53;;;;;;;4.07;2.60;;;;;;;8.57;99.70;97036.69;5083642;28;20285;-55
2023/12/26 14:14:57;;;;;;;4.00;2.50;;;;;;;8.54;97.68;97044.81;5083344;28;20198;-55
2023/12/26 14:18:03;;;;;;;4.97;2.63;;;;;;;8.44;98.95;97052.63;5083754;28;20634;-55
2023/12/26 14:21:07;;;;;;;3.30;2.40;;;;;;;8.41;98.78;97052.00;5084296;28;20287;-55
2023/12/26 14:24:11;;;;;;;3.03;2.53;;;;;;;8.31;100.00;97043.16;5082990;28;20206;-56
2023/12/26 14:27:16;;;;;;;3.87;2.70;;;;;;;8.22;100.00;97031.47;5084016;28;20205;-55
2023/12/26 14:30:20;;;;;;;3.73;2.63;;;;;;;8.09;100.00;97027.28;5083407;28;20202;-56
2023/12/26 14:33:24;;;;;;;4.97;3.40;;;;;;;7.99;100.00;97020.13;5083653;28;20205;-57
2023/12/26 14:36:28;;;;;;;7.30;3.70;;;;;;;7.81;100.00;97025.94;5083852;28;20275;-57